createdAt,value
2022-11-28T00:00:27.616Z,4.03
2022-11-28T00:02:29.253Z,4.03
2022-11-28T00:06:32.268Z,4.03
2022-11-28T00:08:33.920Z,4.02
2022-11-28T00:12:37.406Z,4.02
2022-11-28T00:14:38.683Z,4.02
2022-11-28T00:16:40.130Z,4.02
2022-11-28T00:18:41.251Z,4.02
2022-11-28T00:22:44.903Z,4.02
2022-11-28T00:24:46.101Z,4.02
2022-11-28T00:26:47.889Z,4.03
2022-11-28T00:28:49.811Z,4.02
2022-11-28T00:32:53.681Z,4.02
2022-11-28T00:34:55.633Z,4.02
2022-11-28T00:36:56.533Z,4.02
2022-11-28T00:38:58.340Z,4.02
2022-11-28T00:40:59.648Z,4.02
2022-11-28T00:43:00.681Z,4.02
2022-11-28T00:45:01.875Z,4.02
2022-11-28T00:49:04.315Z,4.02
2022-11-28T00:51:05.541Z,4.02
2022-11-28T00:53:07.489Z,4.02
2022-11-28T00:55:08.871Z,4.02
2022-11-28T00:57:10.865Z,4.02
2022-11-28T00:59:12.247Z,4.02
2022-11-28T01:01:13.867Z,4.02
2022-11-28T01:05:17.091Z,4.02
2022-11-28T01:07:18.258Z,4.02
2022-11-28T01:09:19.608Z,4.02
2022-11-28T01:11:20.709Z,4.02
2022-11-28T01:13:21.707Z,4.02
2022-11-28T01:15:23.184Z,4.02
2022-11-28T01:17:25.084Z,4.02
2022-11-28T01:21:27.853Z,4.02
2022-11-28T01:23:29.653Z,4.02
2022-11-28T01:25:31.366Z,4.02
2022-11-28T01:27:33.035Z,4.01
2022-11-28T01:31:35.841Z,4.01
2022-11-28T01:33:36.785Z,4.01
2022-11-28T01:35:38.248Z,4.01
2022-11-28T01:37:39.586Z,4.02
2022-11-28T01:39:41.004Z,4.01
2022-11-28T01:41:42.525Z,4.02
2022-11-28T01:43:43.741Z,4.01
2022-11-28T01:47:46.692Z,4.01
2022-11-28T01:49:48.335Z,4.01
2022-11-28T01:51:49.461Z,4.01
2022-11-28T01:53:51.474Z,4.01
2022-11-28T01:55:53.168Z,4.01
2022-11-28T01:57:55.084Z,4.01
2022-11-28T01:59:56.651Z,4.01
2022-11-28T02:04:00.005Z,4.01
2022-11-28T02:06:01.545Z,4.01
2022-11-28T02:08:02.636Z,4
2022-11-28T02:10:04.312Z,4.01
2022-11-28T02:14:08.118Z,4.01
2022-11-28T02:16:09.278Z,4.01
2022-11-28T02:20:11.904Z,4.01
2022-11-28T02:22:13.661Z,4.01
2022-11-28T02:24:15.045Z,4.01
2022-11-28T02:26:16.246Z,4.01
2022-11-28T02:30:19.303Z,4
2022-11-28T02:32:21.095Z,4
2022-11-28T02:34:22.367Z,4
2022-11-28T02:36:23.871Z,4.01
2022-11-28T02:38:25.325Z,4
2022-11-28T02:40:26.378Z,4
2022-11-28T02:42:27.917Z,4
2022-11-28T02:46:30.732Z,4
2022-11-28T02:48:32.392Z,4
2022-11-28T02:50:34.163Z,4
2022-11-28T02:52:35.676Z,4
2022-11-28T02:56:38.873Z,4
2022-11-28T02:58:40.630Z,4
2022-11-28T03:00:41.896Z,4
2022-11-28T03:02:43.184Z,4
2022-11-28T03:04:45.119Z,4
2022-11-28T03:06:46.558Z,4
2022-11-28T03:08:48.387Z,4
2022-11-28T03:12:51.168Z,4
2022-11-28T03:14:52.738Z,4
2022-11-28T03:16:54.500Z,4
2022-11-28T03:18:55.992Z,4
2022-11-28T03:20:57.333Z,4
2022-11-28T03:22:58.960Z,4
2022-11-28T03:25:00.800Z,4
2022-11-28T03:29:02.980Z,4
2022-11-28T03:31:04.330Z,4
2022-11-28T03:33:05.904Z,4
2022-11-28T03:35:07.252Z,4
2022-11-28T03:39:10.556Z,4
2022-11-28T03:41:12.354Z,3.99
2022-11-28T03:43:14.280Z,4
2022-11-28T03:45:15.904Z,3.99
2022-11-28T03:47:17.107Z,3.99
2022-11-28T03:49:18.784Z,3.99
2022-11-28T03:51:20.273Z,4
2022-11-28T03:55:22.678Z,3.99
2022-11-28T03:57:24.536Z,3.99
2022-11-28T04:01:28.296Z,3.99
2022-11-28T04:03:29.369Z,3.99
2022-11-28T04:05:30.826Z,3.99
2022-11-28T04:07:32.291Z,3.99
2022-11-28T04:11:35.601Z,3.99
2022-11-28T04:13:37.076Z,3.99
2022-11-28T04:15:38.446Z,3.99
2022-11-28T04:17:40.120Z,3.99
2022-11-28T04:21:43.433Z,3.99
2022-11-28T04:23:44.752Z,3.99
2022-11-28T04:25:46.512Z,3.99
2022-11-28T04:27:48.504Z,3.99
2022-11-28T04:29:50.356Z,3.99
2022-11-28T04:31:51.827Z,3.99
2022-11-28T04:33:52.951Z,3.99
2022-11-28T04:37:56.427Z,3.98
2022-11-28T04:39:57.961Z,3.99
2022-11-28T04:41:59.500Z,3.98
2022-11-28T04:44:01.480Z,3.98
2022-11-28T04:46:03.257Z,3.98
2022-11-28T04:48:04.416Z,3.98
2022-11-28T04:50:05.670Z,3.98
2022-11-28T04:54:08.480Z,3.98
2022-11-28T04:56:10.112Z,3.98
2022-11-28T04:58:11.835Z,3.98
2022-11-28T05:00:12.892Z,3.98
2022-11-28T05:04:16.241Z,3.98
2022-11-28T05:06:17.292Z,3.98
2022-11-28T05:10:19.952Z,3.98
2022-11-28T05:12:21.121Z,3.98
2022-11-28T05:14:22.943Z,3.98
2022-11-28T05:16:24.389Z,3.98
2022-11-28T05:20:27.762Z,3.98
2022-11-28T05:22:28.972Z,3.98
2022-11-28T05:24:32.309Z,3.98
2022-11-28T05:26:31.502Z,3.98
2022-11-28T05:28:33.406Z,3.98
2022-11-28T05:30:35.017Z,3.98
2022-11-28T05:32:36.239Z,3.98
2022-11-28T05:36:39.877Z,3.98
2022-11-28T05:38:41.705Z,3.98
2022-11-28T05:40:43.096Z,3.98
2022-11-28T05:42:44.523Z,3.98
2022-11-28T05:44:46.139Z,3.98
2022-11-28T05:46:48.096Z,3.98
2022-11-28T05:48:49.224Z,3.98
2022-11-28T05:52:52.495Z,3.98
2022-11-28T05:54:53.909Z,3.98
2022-11-28T05:56:54.970Z,3.98
2022-11-28T05:58:56.083Z,3.98
2022-11-28T06:03:01.090Z,3.97
2022-11-28T06:05:11.365Z,3.97
2022-11-28T06:07:01.722Z,3.97
2022-11-28T06:09:10.920Z,3.97
2022-11-28T06:11:04.867Z,3.97
2022-11-28T06:13:06.432Z,3.97
2022-11-28T06:15:08.015Z,3.97
2022-11-28T06:19:11.186Z,3.97
2022-11-28T06:21:12.695Z,3.97
2022-11-28T06:23:14.359Z,3.97
2022-11-28T06:25:16.085Z,3.97
2022-11-28T06:27:17.574Z,3.97
2022-11-28T06:29:19.233Z,3.97
2022-11-28T06:30:03.101Z,3.97
2022-11-28T06:32:04.663Z,3.97
2022-11-28T06:34:05.899Z,3.97
2022-11-28T06:36:06.923Z,3.97
2022-11-28T06:38:12.935Z,3.97
2022-11-28T06:40:09.483Z,3.96
2022-11-28T06:42:11.184Z,3.96
2022-11-28T06:46:16.116Z,3.97
2022-11-28T06:48:15.961Z,3.96
2022-11-28T06:52:18.978Z,3.97
2022-11-28T06:54:20.680Z,3.97
2022-11-28T06:56:22.417Z,3.97
2022-11-28T06:58:23.727Z,3.96
2022-11-28T07:02:27.189Z,3.96
2022-11-28T07:04:28.494Z,3.96
2022-11-28T07:06:30.199Z,3.96
2022-11-28T07:08:31.663Z,3.96
2022-11-28T07:12:34.684Z,3.96
2022-11-28T07:14:35.890Z,3.96
2022-11-28T07:16:37.149Z,3.96
2022-11-28T07:18:38.191Z,3.96
2022-11-28T07:20:39.243Z,3.96
2022-11-28T07:22:41.198Z,3.96
2022-11-28T07:24:42.386Z,3.96
2022-11-28T07:28:45.352Z,3.96
2022-11-28T07:30:47.195Z,3.96
2022-11-28T07:34:50.710Z,3.96
2022-11-28T07:36:52.461Z,3.96
2022-11-28T07:38:54.245Z,3.96
2022-11-28T07:40:55.613Z,3.96
2022-11-28T07:44:57.799Z,3.96
2022-11-28T07:46:59.825Z,3.96
2022-11-28T07:49:01.258Z,3.95
2022-11-28T07:51:02.535Z,3.96
2022-11-28T07:55:05.416Z,3.96
2022-11-28T07:57:13.490Z,3.96
2022-11-28T08:01:10.030Z,3.95
2022-11-28T08:03:11.471Z,3.96
2022-11-28T08:05:12.725Z,3.96
2022-11-28T08:07:13.965Z,3.95
2022-11-28T08:11:16.316Z,3.96
2022-11-28T08:13:17.514Z,3.95
2022-11-28T08:15:19.082Z,3.95
2022-11-28T08:17:20.803Z,3.95
2022-11-28T08:19:24.465Z,3.95
2022-11-28T08:21:23.171Z,3.96
2022-11-28T08:23:24.888Z,3.95
2022-11-28T08:27:27.922Z,3.95
2022-11-28T08:29:29.597Z,3.95
2022-11-28T08:31:31.244Z,3.95
2022-11-28T08:33:32.896Z,3.95
2022-11-28T08:35:34.183Z,3.95
2022-11-28T08:37:35.790Z,3.95
2022-11-28T08:39:37.721Z,3.95
2022-11-28T08:43:40.814Z,3.95
2022-11-28T08:45:42.816Z,3.95
2022-11-28T08:47:44.015Z,3.95
2022-11-28T08:49:45.693Z,3.95
2022-11-28T08:53:49.390Z,3.95
2022-11-28T08:55:49.408Z,3.95
2022-11-28T08:59:52.351Z,3.95
2022-11-28T09:01:53.826Z,3.95
2022-11-28T09:03:55.119Z,3.95
2022-11-28T09:05:56.445Z,3.95
2022-11-28T09:10:00.124Z,3.95
2022-11-28T09:12:01.588Z,3.95
2022-11-28T09:14:02.724Z,3.95
2022-11-28T09:16:03.947Z,3.95
2022-11-28T09:18:05.111Z,3.95
2022-11-28T09:20:06.819Z,3.95
2022-11-28T09:22:08.319Z,3.95
2022-11-28T09:26:12.003Z,3.95
2022-11-28T09:28:13.065Z,3.95
2022-11-28T09:30:14.711Z,3.95
2022-11-28T09:32:15.777Z,3.95
2022-11-28T09:36:17.869Z,3.95
2022-11-28T09:38:19.182Z,3.95
2022-11-28T09:40:20.579Z,3.95
2022-11-28T09:42:22.104Z,3.95
2022-11-28T09:44:23.205Z,3.95
2022-11-28T09:46:24.770Z,3.95
2022-11-28T09:48:26.519Z,3.96
2022-11-28T09:52:29.361Z,3.95
2022-11-28T09:54:30.374Z,3.95
2022-11-28T09:58:32.776Z,3.95
2022-11-28T10:00:34.082Z,3.95
2022-11-28T10:02:35.986Z,3.96
2022-11-28T10:04:37.451Z,3.96
2022-11-28T10:08:40.447Z,3.95
2022-11-28T10:10:41.545Z,3.96
2022-11-28T10:12:42.875Z,3.96
2022-11-28T10:14:44.040Z,3.96
2022-11-28T10:16:45.383Z,3.96
2022-11-28T10:18:46.626Z,3.96
2022-11-28T10:20:47.643Z,3.96
2022-11-28T10:24:50.422Z,3.96
2022-11-28T10:26:51.909Z,3.96
2022-11-28T10:28:53.698Z,3.96
2022-11-28T10:30:55.110Z,3.96
2022-11-28T10:34:57.726Z,3.96
2022-11-28T10:36:59.167Z,3.96
2022-11-28T10:39:00.754Z,3.96
2022-11-28T10:41:02.368Z,3.96
2022-11-28T10:43:03.822Z,3.96
2022-11-28T10:45:05.685Z,3.96
2022-11-28T10:47:07.599Z,3.96
2022-11-28T10:51:10.740Z,3.96
2022-11-28T10:53:11.823Z,3.96
2022-11-28T10:55:12.999Z,3.96
2022-11-28T10:57:14.028Z,3.96
2022-11-28T10:59:15.892Z,3.96
2022-11-28T11:01:17.534Z,3.96
2022-11-28T11:03:18.676Z,3.96
2022-11-28T11:07:25.191Z,3.96
2022-11-28T11:09:23.320Z,3.96
2022-11-28T11:11:24.929Z,3.96
2022-11-28T11:13:26.120Z,3.96
2022-11-28T11:17:32.732Z,3.96
2022-11-28T11:19:31.288Z,3.96
2022-11-28T11:23:38.011Z,3.96
2022-11-28T11:25:35.975Z,3.96
2022-11-28T11:27:37.335Z,3.95
2022-11-28T11:29:38.919Z,3.96
2022-11-28T11:31:39.939Z,3.95
2022-11-28T11:33:41.799Z,3.95
2022-11-28T11:35:43.607Z,3.95
2022-11-28T11:37:45.439Z,3.95
2022-11-28T11:39:46.486Z,3.95
2022-11-28T11:41:48.328Z,3.95
2022-11-28T11:43:50.214Z,3.95
2022-11-28T11:45:52.651Z,3.95
2022-11-28T11:49:55.212Z,3.95
2022-11-28T11:51:56.479Z,3.95
2022-11-28T11:53:57.828Z,3.95
2022-11-28T11:55:58.845Z,3.95
2022-11-28T12:00:02.398Z,3.95
2022-11-28T12:02:03.724Z,3.95
2022-11-28T12:06:14.013Z,3.95
2022-11-28T12:08:08.007Z,3.95
2022-11-28T12:10:09.816Z,3.95
2022-11-28T12:12:11.033Z,3.95
2022-11-28T12:16:14.464Z,3.95
2022-11-28T12:18:16.361Z,3.95
2022-11-28T12:20:17.805Z,3.94
2022-11-28T12:22:19.392Z,3.95
2022-11-28T12:24:21.185Z,3.95
2022-11-28T12:26:22.465Z,3.94
2022-11-28T12:28:24.082Z,3.95
2022-11-28T12:32:27.655Z,3.95
2022-11-28T12:34:28.842Z,3.95
2022-11-28T12:36:30.217Z,3.95
2022-11-28T12:38:32.105Z,3.95
2022-11-28T12:42:34.590Z,3.95
2022-11-28T12:44:35.860Z,3.95
2022-11-28T12:48:38.612Z,3.95
2022-11-28T12:50:40.137Z,3.95
2022-11-28T12:52:41.278Z,3.95
2022-11-28T12:54:43.041Z,3.95
2022-11-28T12:58:46.061Z,3.95
2022-11-28T13:00:47.674Z,3.94
2022-11-28T13:02:49.035Z,3.94
2022-11-28T13:04:50.487Z,3.94
2022-11-28T13:06:51.489Z,3.95
2022-11-28T13:08:53.268Z,3.94
2022-11-28T13:10:54.480Z,3.94
2022-11-28T13:14:57.731Z,3.94
2022-11-28T13:15:41.635Z,3.94
2022-11-28T13:17:43.471Z,3.94
2022-11-28T13:19:44.727Z,3.94
2022-11-28T13:21:46.450Z,3.94
2022-11-28T13:23:48.172Z,3.94
2022-11-28T13:25:49.743Z,3.94
2022-11-28T13:27:51.183Z,3.94
2022-11-28T13:29:52.409Z,3.94
2022-11-28T13:31:58.847Z,3.94
2022-11-28T13:35:56.535Z,3.94
2022-11-28T13:42:28.719Z,3.94
2022-11-28T13:44:02.821Z,3.94
2022-11-28T13:46:04.127Z,3.94
2022-11-28T13:48:05.504Z,3.94
2022-11-28T13:52:09.682Z,3.94
2022-11-28T13:54:09.513Z,3.94
2022-11-28T13:58:12.397Z,3.94
2022-11-28T14:00:13.632Z,3.94
2022-11-28T14:02:15.641Z,3.94
2022-11-28T14:04:16.615Z,3.94
2022-11-28T14:08:19.716Z,3.94
2022-11-28T14:10:21.094Z,3.93
2022-11-28T14:12:22.636Z,3.94
2022-11-28T14:14:24.546Z,3.93
2022-11-28T14:18:48.215Z,3.93
2022-11-28T14:20:29.331Z,3.94
2022-11-28T14:22:30.383Z,3.94
2022-11-28T14:24:31.555Z,3.93
2022-11-28T14:26:32.620Z,3.93
2022-11-28T14:28:33.624Z,3.93
2022-11-28T14:30:34.619Z,3.93
2022-11-28T14:34:37.548Z,3.93
2022-11-28T14:36:38.651Z,3.93
2022-11-28T14:38:39.648Z,3.93
2022-11-28T14:40:40.749Z,3.93
2022-11-28T14:42:59.928Z,3.93
2022-11-28T14:44:42.992Z,3.93
2022-11-28T14:46:44.066Z,3.93
2022-11-28T14:50:46.853Z,3.93
2022-11-28T14:52:48.540Z,3.93
2022-11-28T14:54:49.789Z,3.93
2022-11-28T14:56:53.998Z,3.93
2022-11-28T15:00:54.096Z,3.93
2022-11-28T15:02:55.794Z,3.92
2022-11-28T15:06:58.905Z,3.92
2022-11-28T15:09:00.085Z,3.93
2022-11-28T15:11:01.524Z,3.93
2022-11-28T15:13:03.130Z,3.93
2022-11-28T15:17:05.549Z,3.92
2022-11-28T15:19:06.685Z,3.92
2022-11-28T15:23:09.860Z,3.93
2022-11-28T15:25:11.616Z,3.92
2022-11-28T15:27:13.441Z,3.92
2022-11-28T15:29:15.125Z,3.92
2022-11-28T15:33:17.533Z,3.92
2022-11-28T15:35:19.440Z,3.92
2022-11-28T15:37:21.397Z,3.92
2022-11-28T15:39:23.134Z,3.92
2022-11-28T15:43:26.690Z,3.92
2022-11-28T15:45:28.357Z,3.92
2022-11-28T15:47:29.515Z,3.92
2022-11-28T15:49:30.719Z,3.92
2022-11-28T15:51:32.010Z,3.92
2022-11-28T15:53:33.661Z,3.92
2022-11-28T15:55:34.900Z,3.92
2022-11-28T15:59:37.675Z,3.92
2022-11-28T16:01:38.947Z,3.92
2022-11-28T16:05:41.194Z,3.92
2022-11-28T16:07:42.746Z,3.92
2022-11-28T16:09:44.026Z,3.92
2022-11-28T16:11:45.756Z,3.92
2022-11-28T16:15:50.198Z,3.92
2022-11-28T16:17:50.214Z,3.92
2022-11-28T16:19:52.037Z,3.92
2022-11-28T16:21:53.814Z,3.92
2022-11-28T16:25:56.425Z,3.92
2022-11-28T16:27:57.682Z,3.92
2022-11-28T16:29:59.253Z,3.92
2022-11-28T16:32:00.312Z,3.92
2022-11-28T16:34:01.518Z,3.92
2022-11-28T16:36:02.750Z,3.92
2022-11-28T16:38:03.780Z,3.92
2022-11-28T16:42:06.569Z,3.92
2022-11-28T16:44:08.459Z,3.91
2022-11-28T16:46:10.003Z,3.92
2022-11-28T16:48:11.169Z,3.91
2022-11-28T16:50:15.696Z,3.91
2022-11-28T16:52:14.138Z,3.91
2022-11-28T16:54:16.040Z,3.91
2022-11-28T16:56:18.076Z,3.91
2022-11-28T16:58:19.513Z,3.91
2022-11-28T17:00:20.767Z,3.91
2022-11-28T17:02:21.981Z,3.92
2022-11-28T17:04:23.709Z,3.91
2022-11-28T17:06:24.939Z,3.91
2022-11-28T17:08:30.344Z,3.91
2022-11-28T17:10:27.798Z,3.91
2022-11-28T17:14:30.639Z,3.91
2022-11-28T17:16:32.502Z,3.91
2022-11-28T17:18:33.499Z,3.91
2022-11-28T17:20:35.177Z,3.91
2022-11-28T17:24:37.974Z,3.91
2022-11-28T17:26:39.258Z,3.91
2022-11-28T17:28:40.899Z,3.91
2022-11-28T17:30:42.093Z,3.9
2022-11-28T17:32:43.190Z,3.9
2022-11-28T17:34:44.977Z,3.91
2022-11-28T17:36:45.937Z,3.91
2022-11-28T17:40:48.414Z,3.91
2022-11-28T17:42:50.115Z,3.91
2022-11-28T17:44:51.272Z,3.9
2022-11-28T17:46:52.630Z,3.9
2022-11-28T17:48:54.024Z,3.9
2022-11-28T17:50:55.514Z,3.9
2022-11-28T17:52:57.214Z,3.91
2022-11-28T17:57:00.419Z,3.9
2022-11-28T17:59:02.408Z,3.9
2022-11-28T18:01:03.459Z,3.91
2022-11-28T18:03:04.670Z,3.9
2022-11-28T18:05:05.769Z,3.9
2022-11-28T18:07:07.139Z,3.9
2022-11-28T18:09:11.828Z,3.9
2022-11-28T18:11:09.692Z,3.9
2022-11-28T18:13:11.631Z,3.9
2022-11-28T18:15:12.800Z,3.9
2022-11-28T18:17:14.483Z,3.9
2022-11-28T18:19:15.769Z,3.9
2022-11-28T18:23:19.153Z,3.9
2022-11-28T18:25:20.482Z,3.9
2022-11-28T18:29:23.378Z,3.9
2022-11-28T18:31:24.897Z,3.9
2022-11-28T18:33:26.227Z,3.9
2022-11-28T18:35:27.601Z,3.9
2022-11-28T18:39:30.307Z,3.9
2022-11-28T18:41:40.188Z,3.9
2022-11-28T18:43:34.159Z,3.9
2022-11-28T18:45:36.031Z,3.9
2022-11-28T18:49:38.720Z,3.9
2022-11-28T18:51:40.512Z,3.9
2022-11-28T18:53:41.588Z,3.9
2022-11-28T18:55:43.190Z,3.9
2022-11-28T18:57:44.369Z,3.9
2022-11-28T18:59:51.479Z,3.9
2022-11-28T19:01:47.246Z,3.9
2022-11-28T19:05:50.456Z,3.9
2022-11-28T19:07:52.438Z,3.9
2022-11-28T19:10:02.257Z,3.9
2022-11-28T19:11:55.894Z,3.9
2022-11-28T19:13:57.818Z,3.9
2022-11-28T19:15:59.715Z,3.89
2022-11-28T19:18:01.371Z,3.89
2022-11-28T19:22:04.208Z,3.89
2022-11-28T19:24:05.294Z,3.89
2022-11-28T19:26:06.590Z,3.89
2022-11-28T19:28:07.669Z,3.89
2022-11-28T19:32:10.685Z,3.89
2022-11-28T19:34:11.821Z,3.89
2022-11-28T19:38:15.260Z,3.89
2022-11-28T19:40:16.582Z,3.89
2022-11-28T19:42:17.726Z,3.89
2022-11-28T19:44:19.469Z,3.89
2022-11-28T19:48:22.834Z,3.89
2022-11-28T19:50:23.918Z,3.89
2022-11-28T19:52:25.872Z,3.89
2022-11-28T19:54:27.280Z,3.89
2022-11-28T19:56:29.239Z,3.89
2022-11-28T19:58:31.060Z,3.89
2022-11-28T20:00:32.514Z,3.89
2022-11-28T20:01:16.397Z,3.89
2022-11-28T20:03:18.254Z,3.89
2022-11-28T20:05:19.408Z,3.89
2022-11-28T20:07:21.286Z,3.88
2022-11-28T20:09:22.871Z,3.89
2022-11-28T20:11:24.432Z,3.89
2022-11-28T20:15:28.170Z,3.89
2022-11-28T20:17:29.570Z,3.88
2022-11-28T20:19:30.579Z,3.88
2022-11-28T20:21:41.560Z,3.88
2022-11-28T20:23:33.951Z,3.88
2022-11-28T20:25:35.771Z,3.88
2022-11-28T20:27:37.267Z,3.88
2022-11-28T20:29:38.813Z,3.88
2022-11-28T20:31:40.713Z,3.88
2022-11-28T20:33:42.363Z,3.88
2022-11-28T20:35:43.377Z,3.88
2022-11-28T20:37:44.517Z,3.88
2022-11-28T20:41:47.437Z,3.88
2022-11-28T20:43:48.459Z,3.88
2022-11-28T20:45:49.677Z,3.88
2022-11-28T20:47:51.598Z,3.88
2022-11-28T20:49:53.015Z,3.88
2022-11-28T20:51:54.888Z,3.88
2022-11-28T20:53:56.787Z,3.88
2022-11-28T20:58:00.144Z,3.88
2022-11-28T21:00:01.890Z,3.88
2022-11-28T21:02:03.425Z,3.88
2022-11-28T21:04:04.534Z,3.88
2022-11-28T21:08:07.608Z,3.88
2022-11-28T21:10:09.443Z,3.88
2022-11-28T21:12:12.165Z,3.88
2022-11-28T21:14:12.918Z,3.88
2022-11-28T21:16:14.774Z,3.88
2022-11-28T21:18:15.759Z,3.88
2022-11-28T21:20:17.060Z,3.88
2022-11-28T21:24:20.553Z,3.88
2022-11-28T21:26:26.104Z,3.88
2022-11-28T21:28:23.518Z,3.88
2022-11-28T21:30:25.348Z,3.88
2022-11-28T21:32:27.222Z,3.88
2022-11-28T21:34:29.180Z,3.88
2022-11-28T21:36:31.273Z,3.88
2022-11-28T21:40:34.682Z,3.88
2022-11-28T21:42:36.599Z,3.88
2022-11-28T21:44:37.590Z,3.88
2022-11-28T21:46:39.345Z,3.88
2022-11-28T21:48:40.858Z,3.87
2022-11-28T21:50:41.971Z,3.87
2022-11-28T21:52:43.588Z,3.88
2022-11-28T21:54:45.279Z,3.87
2022-11-28T21:56:46.801Z,3.87
2022-11-28T21:58:47.764Z,3.87
2022-11-28T22:00:53.021Z,3.87
2022-11-28T22:02:50.874Z,3.87
2022-11-28T22:06:53.566Z,3.87
2022-11-28T22:08:55.216Z,3.87
2022-11-28T22:12:58.896Z,3.87
2022-11-28T22:15:00.881Z,3.87
2022-11-28T22:17:02.298Z,3.87
2022-11-28T22:19:03.614Z,3.87
2022-11-28T22:23:06.322Z,3.87
2022-11-28T22:25:07.632Z,3.87
2022-11-28T22:27:08.654Z,3.87
2022-11-28T22:29:10.027Z,3.87
2022-11-28T22:33:12.988Z,3.87
2022-11-28T22:35:14.317Z,3.87
2022-11-28T22:39:16.986Z,3.87
2022-11-28T22:41:22.105Z,3.86
2022-11-28T22:43:20.683Z,3.87
2022-11-28T22:45:21.879Z,3.87
2022-11-28T22:49:24.827Z,3.86
2022-11-28T22:51:26.722Z,3.86
2022-11-28T22:53:28.581Z,3.87
2022-11-28T22:55:29.649Z,3.86
2022-11-28T22:57:31.255Z,3.86
2022-11-28T22:59:32.544Z,3.87
2022-11-28T23:01:33.918Z,3.86
2022-11-28T23:05:36.253Z,3.86
2022-11-28T23:07:38.223Z,3.86
2022-11-28T23:09:39.668Z,3.86
2022-11-28T23:11:41.342Z,3.86
2022-11-28T23:15:48.487Z,3.86
2022-11-28T23:17:46.327Z,3.86
2022-11-28T23:19:47.751Z,3.86
2022-11-28T23:21:49.658Z,3.86
2022-11-28T23:23:51.091Z,3.86
2022-11-28T23:25:52.783Z,3.86
2022-11-28T23:27:54.262Z,3.86
2022-11-28T23:31:57.451Z,3.86
2022-11-28T23:33:59.178Z,3.86
2022-11-28T23:36:00.519Z,3.86
2022-11-28T23:38:01.939Z,3.86
2022-11-28T23:40:03.459Z,3.86
2022-11-28T23:42:04.882Z,3.86
2022-11-28T23:44:06.284Z,3.86
2022-11-28T23:48:08.387Z,3.86
2022-11-28T23:50:10.217Z,3.86
2022-11-28T23:52:11.824Z,3.86
2022-11-28T23:54:12.937Z,3.86
2022-11-28T23:58:15.567Z,3.86
